Latest Weather Observations for Newdegate

IDW60801

Issued at 2:12 pm WST Saturday 13 April 2024 (issued every 10 minutes, with the page automatically refreshed every 10 minutes)

About weather observations | Map of weather stations | Latest weather observations for WA | Other Formats
Station Details ID: 010692 Name: NEWDEGATE RESEARCH STATION Lat: -33.11 Lon: 118.84 Height: 320.0 m
Data from the previous 72 hours. | See also: Recent months at Newdegate
Date/Time
WST
Temp
°C
App
Temp
°C
Dew
Point
°C
Rel
Hum
%
Delta-T
°C
Wind Press
QNH
hPa
Press
MSL
hPa
Rain since
9am
mm
Dir  Spd
km/h
Gust
km/h
Spd
kts
Gust
kts
13/02:00pm 21.3 20.2 11.9 55 5.3 ENE 9 19 5 10 1018.4 1017.7 0.0
13/01:30pm 20.8 18.9 11.7 56 5.1 ENE 13 22 7 12 1018.4 1017.7 0.0
13/01:00pm 20.9 19.4 11.8 56 5.1 NE 11 19 6 10 1018.7 1018.0 0.0
13/12:30pm 19.4 18.2 11.7 61 4.3 NE 9 17 5 9 1019.4 1018.6 0.0
13/12:00pm 19.0 17.5 13.2 69 3.3 ENE 13 17 7 9 1019.9 1019.2 0.0
13/11:30am 18.0 16.8 12.7 71 3.0 NE 11 19 6 10 1020.4 1019.7 0.0
13/11:00am 17.4 15.3 12.3 72 2.9 NE 15 22 8 12 1020.8 1020.1 0.0
13/10:30am 17.0 15.2 13.3 79 2.1 NE 15 22 8 12 1021.0 1020.3 0.0
13/10:00am 16.3 14.1 13.4 83 1.6 ENE 17 20 9 11 1021.4 1020.7 0.0
13/09:30am 15.7 14.0 13.5 87 1.3 ENE 15 20 8 11 1021.6 1020.9 0.0
13/09:00am 15.0 13.6 13.4 90 0.9 ENE 13 17 7 9 1021.8 1021.1 3.2
13/08:30am 14.6 13.9 13.1 91 0.8 ESE 9 15 5 8 1021.9 1021.2 3.2
13/08:00am 14.1 13.6 12.7 91 0.8 ESE 7 11 4 6 1021.9 1021.2 3.2
13/07:30am 13.4 12.7 12.1 92 0.7 ESE 7 9 4 5 1021.8 1021.1 3.2
13/07:00am 12.9 12.0 11.5 91 0.8 SE 7 9 4 5 1021.7 1021.0 3.2
13/06:30am 12.7 11.4 11.3 91 0.8 ESE 9 11 5 6 1021.8 1021.1 3.2
13/06:00am 12.8 11.2 11.4 91 0.7 SE 11 13 6 7 1021.6 1020.9 3.2
13/05:30am 12.8 11.9 11.2 90 0.9 ENE 7 9 4 5 1021.8 1021.1 1.8
13/05:00am 13.2 11.9 11.4 89 1.0 E 9 13 5 7 1021.9 1021.2 0.6
13/04:30am 13.6 12.8 11.8 89 1.0 SE 7 11 4 6 1021.8 1021.1 0.4
13/04:00am 13.8 12.6 11.5 86 1.2 E 9 13 5 7 1021.8 1021.1 0.0
13/03:30am 14.4 13.3 12.1 86 1.3 E 9 13 5 7 1021.9 1021.2 0.0
13/03:00am 14.3 13.3 12.2 87 1.2 E 9 13 5 7 1021.9 1021.2 0.0
13/02:30am 14.3 13.7 12.2 87 1.2 E 7 11 4 6 1022.1 1021.4 0.0
13/02:00am 14.3 13.3 12.2 87 1.2 E 9 13 5 7 1022.3 1021.5 0.0
13/01:30am 14.4 12.6 12.1 86 1.3 ENE 13 17 7 9 1022.3 1021.5 0.0
13/01:00am 14.5 12.3 12.0 85 1.4 ENE 15 19 8 10 1022.1 1021.4 0.0
13/12:30am 14.6 12.9 12.3 86 1.3 ENE 13 19 7 10 1022.5 1021.7 0.0
13/12:00am 14.6 13.3 12.5 87 1.2 E 11 15 6 8 1022.5 1021.7 0.0
 
Date/Time
WST
Temp
°C
App
Temp
°C
Dew
Point
°C
Rel
Hum
%
Delta-T
°C
Wind Press
QNH
hPa
Press
MSL
hPa
Rain since
9am
mm
Dir  Spd
km/h
Gust
km/h
Spd
kts
Gust
kts
12/11:30pm 14.6 12.5 12.5 87 1.2 E 15 19 8 10 1022.4 1021.6 0.0
12/11:00pm 14.7 13.2 12.0 84 1.5 ESE 11 17 6 9 1022.6 1021.8 0.0
12/10:30pm 15.0 12.8 12.0 82 1.7 ESE 15 20 8 11 1022.7 1022.0 0.0
12/10:00pm 15.4 12.4 10.8 74 2.5 ESE 17 24 9 13 1022.8 1022.1 0.0
12/09:30pm 16.2 13.0 9.8 66 3.4 E 17 24 9 13 1022.9 1022.2 0.0
12/09:00pm 16.4 13.2 10.0 66 3.4 E 17 22 9 12 1022.9 1022.2 0.0
12/08:30pm 16.6 13.3 10.9 69 3.1 ESE 19 24 10 13 1022.8 1022.1 0.0
12/08:00pm 16.8 13.7 9.0 60 4.1 ESE 15 20 8 11 1022.7 1022.0 0.0
12/07:30pm 16.4 14.0 6.8 53 4.8 ESE 9 13 5 7 1022.6 1021.8 0.0
12/07:00pm 16.4 13.5 6.5 52 4.9 SE 11 13 6 7 1022.3 1021.5 0.0
12/06:30pm 17.1 14.2 6.3 49 5.4 E 11 13 6 7 1021.8 1021.1 0.0
12/06:00pm 18.2 14.6 6.7 47 5.8 E 15 19 8 10 1021.6 1020.9 0.0
12/05:30pm 19.6 15.1 7.0 44 6.5 E 20 28 11 15 1021.3 1020.6 0.0
12/05:00pm 20.4 15.5 6.7 41 7.0 E 22 30 12 16 1021.2 1020.5 0.0
12/04:30pm 21.4 17.1 6.9 39 7.5 E 19 28 10 15 1021.2 1020.5 0.0
12/04:00pm 21.9 17.0 7.0 38 7.7 E 22 30 12 16 1021.2 1020.5 0.0
12/03:30pm 21.6 17.6 6.7 38 7.7 ENE 17 22 9 12 1021.2 1020.5 0.0
12/03:00pm 21.8 17.5 6.9 38 7.7 E 19 24 10 13 1021.4 1020.7 0.0
12/02:30pm 21.8 17.4 7.2 39 7.6 E 20 28 11 15 1021.5 1020.8 0.0
12/02:00pm 22.3 17.9 6.5 36 8.2 E 19 28 10 15 1021.6 1020.9 0.0
12/01:30pm 22.5 18.6 7.1 37 8.1 E 17 24 9 13 1021.6 1020.9 0.0
12/01:00pm 21.7 17.3 7.5 40 7.4 E 20 26 11 14 1022.1 1021.4 0.0
12/12:30pm 21.6 17.9 7.8 41 7.3 ENE 17 28 9 15 1022.7 1022.0 0.0
12/12:00pm 23.0 19.8 8.3 39 7.9 E 15 22 8 12 1023.0 1022.3 0.0
12/11:30am 22.1 18.4 9.6 45 6.8 ENE 19 26 10 14 1023.6 1022.9 0.0
12/11:00am 20.3 17.1 9.8 51 5.7 E 17 22 9 12 1024.1 1023.4 0.0
12/10:30am 19.6 15.9 10.0 54 5.2 ENE 20 26 11 14 1024.4 1023.7 0.0
12/10:00am 19.2 15.6 10.5 57 4.7 NE 20 26 11 14 1024.7 1024.0 0.0
12/09:30am 18.1 14.9 11.2 64 3.8 ENE 19 24 10 13 1024.9 1024.2 0.0
12/09:00am 15.8 12.9 11.0 73 2.6 E 17 22 9 12 1025.1 1024.4 0.0
12/08:30am 14.8 11.9 11.0 78 2.0 E 17 22 9 12 1025.1 1024.4 0.0
12/08:00am 13.1 10.1 10.5 84 1.4 ESE 17 20 9 11 1025.1 1024.4 0.0
12/07:30am 12.6 10.3 10.5 87 1.1 ESE 13 17 7 9 1025.0 1024.3 0.0
12/07:00am 11.9 9.5 10.0 88 1.0 ESE 13 17 7 9 1024.8 1024.1 0.0
12/06:30am 11.9 10.2 10.0 88 1.0 ESE 9 15 5 8 1024.6 1023.9 0.0
12/06:00am 12.0 9.6 10.1 88 1.0 ESE 13 17 7 9 1024.4 1023.7 0.0
12/05:30am 11.9 9.4 9.8 87 1.1 ESE 13 15 7 8 1024.3 1023.6 0.0
12/05:00am 12.3 9.2 10.2 87 1.1 ESE 17 22 9 12 1024.1 1023.4 0.0
12/04:30am 12.5 9.8 10.4 87 1.1 E 15 22 8 12 1024.2 1023.5 0.0
12/04:00am 12.0 10.3 9.7 86 1.2 E 9 11 5 6 1024.2 1023.5 0.0
12/03:30am 11.4 9.5 9.0 85 1.2 ESE 9 11 5 6 1023.9 1023.2 0.0
12/03:00am 11.4 9.8 8.8 84 1.3 E 7 9 4 5 1024.1 1023.4 0.0
12/02:30am 11.6 9.6 8.8 83 1.4 ESE 9 11 5 6 1024.0 1023.3 0.0
12/02:00am 11.6 10.0 8.8 83 1.4 ESE 7 11 4 6 1024.1 1023.4 0.0
12/01:30am 12.2 10.3 9.0 81 1.6 ESE 9 11 5 6 1024.1 1023.4 0.0
12/01:00am 12.6 10.7 9.2 80 1.7 ESE 9 13 5 7 1024.2 1023.5 0.0
12/12:30am 12.9 10.7 9.2 78 1.9 ESE 11 15 6 8 1024.2 1023.5 0.0
12/12:00am 13.5 10.2 9.6 77 2.0 ESE 17 20 9 11 1024.1 1023.4 0.0
 
Date/Time
WST
Temp
°C
App
Temp
°C
Dew
Point
°C
Rel
Hum
%
Delta-T
°C
Wind Press
QNH
hPa
Press
MSL
hPa
Rain since
9am
mm
Dir  Spd
km/h
Gust
km/h
Spd
kts
Gust
kts
11/11:30pm 13.5 10.2 9.4 76 2.1 ESE 17 22 9 12 1024.1 1023.4 0.0
11/11:00pm 13.4 10.4 9.3 76 2.1 ESE 15 20 8 11 1024.4 1023.7 0.0
11/10:30pm 13.5 10.5 9.2 75 2.2 ESE 15 20 8 11 1024.7 1024.0 0.0
11/10:00pm 13.6 10.9 9.1 74 2.3 ESE 13 17 7 9 1024.8 1024.1 0.0
11/09:30pm 13.9 10.8 8.7 71 2.7 ESE 15 22 8 12 1025.0 1024.3 0.0
11/09:00pm 14.4 10.9 8.8 69 2.9 ESE 17 22 9 12 1024.9 1024.2 0.0
11/08:30pm 15.0 11.2 8.9 67 3.2 ESE 19 26 10 14 1024.7 1024.0 0.0
11/08:00pm 15.4 11.0 9.1 66 3.3 ESE 22 30 12 16 1024.5 1023.8 0.0
11/07:30pm 15.7 11.3 8.9 64 3.5 ESE 22 33 12 18 1024.3 1023.6 0.0
11/07:00pm 16.5 12.4 8.5 59 4.1 SE 20 32 11 17 1024.2 1023.5 0.0
11/06:30pm 17.5 13.9 4.8 43 6.2 E 13 17 7 9 1023.8 1023.1 0.0
11/06:00pm 18.8 13.9 4.9 40 6.8 E 20 28 11 15 1023.6 1022.9 0.0
11/05:30pm 19.5 14.2 5.2 39 7.1 ESE 22 30 12 16 1023.3 1022.6 0.0
11/05:00pm 20.2 15.8 4.7 36 7.6 E 17 24 9 13 1023.1 1022.4 0.0
11/04:30pm 21.4 16.6 4.9 34 8.2 ESE 19 33 10 18 1023.0 1022.3 0.0
11/04:00pm 21.9 17.1 4.5 32 8.6 E 19 39 10 21 1022.9 1022.2 0.0
11/03:30pm 21.9 16.4 4.0 31 8.8 ESE 22 33 12 18 1023.1 1022.4 0.0
11/03:00pm 21.7 16.3 4.7 33 8.4 ENE 22 32 12 17 1023.3 1022.6 0.0
11/02:30pm 21.8 16.8 4.4 32 8.6 E 20 30 11 16 1023.4 1022.7 0.0
11/02:00pm 21.4 16.5 4.0 32 8.5 E 19 37 10 20 1023.6 1022.9 0.0
11/01:30pm 21.3 16.3 4.8 34 8.2 E 20 37 11 20 1023.9 1023.2 0.0
11/01:00pm 20.7 16.5 5.9 38 7.5 ESE 17 26 9 14 1024.3 1023.6 0.0
11/12:30pm 20.7 16.6 6.3 39 7.4 E 17 24 9 13 1024.7 1024.0 0.0
11/12:00pm 20.1 15.5 5.7 39 7.2 E 19 28 10 15 1025.1 1024.4 0.0
11/11:30am 19.9 15.3 6.3 41 6.9 ESE 20 28 11 15 1025.8 1025.1 0.0
11/11:00am 18.6 13.8 5.8 43 6.3 ENE 20 30 11 16 1026.2 1025.5 0.0
11/10:30am 18.6 15.1 8.6 52 5.3 ENE 17 24 9 13 1026.5 1025.8 0.0
11/10:00am 17.6 14.1 8.7 56 4.6 ENE 17 24 9 13 1026.7 1026.0 0.0
11/09:30am 16.8 14.1 9.0 60 4.1 E 13 24 7 13 1026.9 1026.2 0.0
11/09:00am 15.2 13.7 10.4 73 2.5 E 9 15 5 8 1027.1 1026.4 0.0
11/08:30am 13.7 12.2 10.7 82 1.6 E 9 11 5 6 1027.2 1026.5 0.0
11/08:00am 12.3 10.8 10.5 89 0.9 ESE 9 11 5 6 1027.2 1026.5 0.0
11/07:30am 11.3 10.0 9.9 91 0.7 ESE 7 11 4 6 1027.0 1026.3 0.0
11/07:00am 10.3 9.3 8.9 91 0.7 SE 4 7 2 4 1026.8 1026.1 0.0
11/06:30am 9.4 7.6 8.0 91 0.7 ESE 7 9 4 5 1026.4 1025.7 0.0
11/06:00am 8.5 7.0 7.0 90 0.7 ESE 4 6 2 3 1026.4 1025.7 0.0
11/05:30am 8.8 7.0 7.3 90 0.7 SE 6 7 3 4 1026.3 1025.6 0.0
11/05:00am 9.5 7.7 7.9 90 0.8 ESE 7 11 4 6 1026.1 1025.4 0.0
11/04:30am 9.5 7.9 7.9 90 0.8 ESE 6 9 3 5 1026.2 1025.5 0.0
11/04:00am 9.5 7.7 7.8 89 0.8 E 7 11 4 6 1026.0 1025.3 0.0
11/03:30am 9.5 7.9 7.8 89 0.8 E 6 7 3 4 1026.1 1025.4 0.0
11/03:00am 9.7 7.9 8.0 89 0.8 E 7 9 4 5 1026.1 1025.4 0.0
11/02:30am 10.1 8.9 8.2 88 0.9 E 4 6 2 3 1026.4 1025.7 0.0
11/02:00am 10.4 8.9 8.5 88 0.9 E 6 7 3 4 1026.6 1025.9 0.0
11/01:30am 10.9 8.6 9.0 88 1.0 ESE 11 15 6 8 1026.8 1026.1 0.0
11/01:00am 11.0 9.6 8.9 87 1.1 E 6 11 3 6 1026.7 1026.0 0.0
11/12:30am 11.3 9.4 9.2 87 1.1 SE 9 13 5 7 1026.5 1025.8 0.0
11/12:00am 11.5 9.6 9.2 86 1.2 ESE 9 13 5 7 1026.6 1025.9 0.0
 
Date/Time
WST
Temp
°C
App
Temp
°C
Dew
Point
°C
Rel
Hum
%
Delta-T
°C
Wind Press
QNH
hPa
Press
MSL
hPa
Rain since
9am
mm
Dir  Spd
km/h
Gust
km/h
Spd
kts
Gust
kts
10/11:30pm 11.9 9.3 9.3 84 1.3 ESE 13 19 7 10 1026.7 1026.0 0.0
10/11:00pm 12.2 9.6 9.2 82 1.5 ESE 13 17 7 9 1026.6 1025.9 0.0
10/10:30pm 12.5 9.1 9.1 80 1.7 ESE 17 20 9 11 1026.4 1025.7 0.0
10/10:00pm 12.8 9.8 9.1 78 1.9 ESE 15 19 8 10 1026.5 1025.8 0.0
10/09:30pm 13.2 9.4 9.1 76 2.1 ESE 19 24 10 13 1026.6 1025.9 0.0
10/09:00pm 13.6 9.8 8.9 73 2.4 SE 19 24 10 13 1026.3 1025.6 0.0
10/08:30pm 14.2 9.8 9.0 71 2.7 SE 22 30 12 16 1026.2 1025.5 0.0
10/08:00pm 14.8 10.0 8.7 67 3.1 SE 24 35 13 19 1025.9 1025.2 0.0
10/07:30pm 15.7 10.9 8.7 63 3.6 SE 24 33 13 18 1025.3 1024.7 0.0
10/07:00pm 16.5 12.4 7.7 56 4.5 SE 19 26 10 14 1025.0 1024.3 0.0
10/06:30pm 17.4 14.0 6.0 47 5.7 ESE 13 17 7 9 1024.8 1024.1 0.0
10/06:00pm 18.7 14.9 5.9 43 6.4 ESE 15 20 8 11 1024.6 1023.9 0.0
10/05:30pm 20.0 15.5 6.0 40 7.1 E 19 24 10 13 1024.4 1023.7 0.0
10/05:00pm 21.1 16.6 5.9 37 7.7 E 19 28 10 15 1024.1 1023.4 0.0
10/04:30pm 21.8 16.9 5.3 34 8.3 E 20 28 11 15 1024.1 1023.4 0.0
10/04:00pm 22.0 17.2 5.4 34 8.4 E 20 28 11 15 1024.2 1023.5 0.0
10/03:30pm 22.1 17.0 5.9 35 8.3 E 22 32 12 17 1024.2 1023.5 0.0
10/03:00pm 22.2 17.4 5.6 34 8.4 E 20 33 11 18 1024.4 1023.7 0.0
10/02:30pm 22.4 17.6 5.8 34 8.5 ESE 20 32 11 17 1024.5 1023.8 0.0

Other formats

Comma delimited format used in spreadsheet applications
http://www.bom.gov.au/fwo/IDW60801/IDW60801.94628.axf

JavaScript Object Notation format (JSON) in row-major order
http://www.bom.gov.au/fwo/IDW60801/IDW60801.94628.json

Data quality

Most of these data are generated automatically and are frequently updated. Quality checks on data are not normally performed. It is possible for incorrect values to appear. Refer to information at About Latest Weather Observations and please check the disclaimer before using these data.